Time;durP1;ratioP1;P1;durP2;ratioP2;P2;SDS_P1;SDS_P2;PMS_P1;PMS_P2;Temp;Humidity;BMP_temperature;BMP_pressure;BME280_temperature;BME280_humidity;BME280_pressure;Samples;Min_cycle;Max_cycle;Signal;HPM_P1;HPM_P2
2021/04/08 00:01:44;;;;;;;18.65;9.40;;;;;;;;;;4998795;28;20020;-58
2021/04/08 00:04:11;;;;;;;19.42;9.57;;;;;;;;;;4967166;29;20015;-59
2021/04/08 00:06:37;;;;;;;19.40;9.15;;;;;;;;;;4967006;28;20034;-58
2021/04/08 00:09:03;;;;;;;21.20;10.07;;;;;;;;;;4998607;28;20147;-59
2021/04/08 00:11:29;;;;;;;18.67;9.40;;;;;;;;;;4967172;29;20095;-60
2021/04/08 00:13:55;;;;;;;21.65;10.98;;;;;;;;;;4967367;29;20035;-57
2021/04/08 00:16:21;;;;;;;20.80;10.10;;;;;;;;;;4967250;29;20023;-58
2021/04/08 00:18:48;;;;;;;20.75;9.52;;;;;;;;;;4967183;29;20213;-60
2021/04/08 00:21:14;;;;;;;20.80;8.82;;;;;;;;;;4966934;28;20027;-54
2021/04/08 00:23:40;;;;;;;20.88;9.52;;;;;;;;;;4967115;28;20023;-57
2021/04/08 00:26:06;;;;;;;20.85;9.75;;;;;;;;;;4998270;28;20027;-60
2021/04/08 00:28:32;;;;;;;19.15;9.93;;;;;;;;;;4998265;28;20317;-56
2021/04/08 00:30:58;;;;;;;20.27;10.10;;;;;;;;;;4998115;28;20146;-55
2021/04/08 00:33:25;;;;;;;22.85;8.48;;;;;;;;;;4997837;28;20035;-58
2021/04/08 00:38:20;;;;;;;17.45;10.13;;;;;;;;;;5000387;23;20077;-57
2021/04/08 00:40:46;;;;;;;24.75;7.95;;;;;;;;;;4985944;28;20086;-57
2021/04/08 00:43:12;;;;;;;20.00;8.77;;;;;;;;;;5001025;28;20026;-59
2021/04/08 00:45:39;;;;;;;22.85;10.77;;;;;;;;;;4985804;28;20038;-58
2021/04/08 00:48:05;;;;;;;22.23;10.45;;;;;;;;;;5015362;28;20026;-59
2021/04/08 00:50:32;;;;;;;19.10;8.98;;;;;;;;;;4985738;28;20086;-57
2021/04/08 00:53:07;;;;;;;23.00;9.75;;;;;;;;;;4985800;28;20038;-58
2021/04/08 00:55:41;;;;;;;19.80;9.02;;;;;;;;;;4986094;28;20027;-58
2021/04/08 00:58:08;;;;;;;17.73;9.63;;;;;;;;;;4985799;28;20034;-59
2021/04/08 01:00:35;;;;;;;21.35;9.43;;;;;;;;;;4985976;28;20019;-60
2021/04/08 01:03:02;;;;;;;20.15;9.52;;;;;;;;;;4985729;28;20220;-57
2021/04/08 01:05:28;;;;;;;19.00;11.00;;;;;;;;;;4985453;28;20018;-58
2021/04/08 01:07:55;;;;;;;20.27;9.90;;;;;;;;;;4985561;28;20042;-58
2021/04/08 01:10:23;;;;;;;22.55;10.57;;;;;;;;;;4985520;28;20015;-55
2021/04/08 01:12:50;;;;;;;20.48;10.15;;;;;;;;;;4985743;28;20272;-58
2021/04/08 01:15:16;;;;;;;23.30;11.45;;;;;;;;;;4985348;28;20284;-55
2021/04/08 01:17:45;;;;;;;20.73;11.55;;;;;;;;;;4985326;28;20058;-60
2021/04/08 01:20:34;;;;;;;22.25;7.50;;;;;;;;;;4984788;28;20074;-53
2021/04/08 01:23:00;;;;;;;;;;;;;;;;;;4985878;28;20221;-57
2021/04/08 01:25:26;;;;;;;24.58;8.63;;;;;;;;;;4985587;28;20113;-62
2021/04/08 01:28:02;;;;;;;20.55;10.02;;;;;;;;;;4985168;28;20238;-58
2021/04/08 01:30:41;;;;;;;19.35;10.00;;;;;;;;;;4985063;28;20051;-58
2021/04/08 01:33:16;;;;;;;20.58;11.30;;;;;;;;;;4985038;28;20023;-60
2021/04/08 01:35:42;;;;;;;23.08;9.70;;;;;;;;;;4985001;28;20039;-57
2021/04/08 01:38:16;;;;;;;18.90;9.63;;;;;;;;;;5000168;28;20295;-59
2021/04/08 01:40:45;;;;;;;20.42;10.30;;;;;;;;;;5000242;28;20022;-59
2021/04/08 01:43:11;;;;;;;;;;;;;;;;;;5000472;28;20054;-58
2021/04/08 01:45:37;;;;;;;20.23;10.30;;;;;;;;;;4999887;28;19952;-61
2021/04/08 01:48:05;;;;;;;21.05;9.63;;;;;;;;;;4984825;28;20022;-59
2021/04/08 01:50:31;;;;;;;19.60;10.32;;;;;;;;;;4984843;28;20314;-59
2021/04/08 01:52:59;;;;;;;21.20;9.70;;;;;;;;;;4984989;28;20031;-61
2021/04/08 01:55:27;;;;;;;20.20;9.82;;;;;;;;;;4985056;28;20253;-58
2021/04/08 01:57:54;;;;;;;19.42;8.13;;;;;;;;;;5000039;28;20023;-58
2021/04/08 02:00:22;;;;;;;22.75;10.57;;;;;;;;;;4984894;28;20027;-60
2021/04/08 02:02:48;;;;;;;22.88;10.60;;;;;;;;;;4984876;28;20027;-55
2021/04/08 02:05:16;;;;;;;24.70;10.32;;;;;;;;;;4984317;28;20026;-57
2021/04/08 02:07:44;;;;;;;25.20;11.32;;;;;;;;;;4984499;28;20027;-59
2021/04/08 02:10:12;;;;;;;19.17;9.02;;;;;;;;;;4984608;28;20343;-55
2021/04/08 02:12:40;;;;;;;25.60;9.88;;;;;;;;;;4999420;28;20237;-59
2021/04/08 02:15:07;;;;;;;20.95;10.05;;;;;;;;;;4984370;28;20023;-58
2021/04/08 02:17:37;;;;;;;25.52;11.10;;;;;;;;;;4984189;28;20029;-61
2021/04/08 02:20:13;;;;;;;21.25;11.52;;;;;;;;;;4984403;28;20030;-61
2021/04/08 02:22:42;;;;;;;23.20;10.80;;;;;;;;;;4999408;28;20022;-59
2021/04/08 02:25:09;;;;;;;21.38;10.63;;;;;;;;;;4984246;28;20086;-61
2021/04/08 02:27:43;;;;;;;21.73;11.23;;;;;;;;;;4999197;28;20022;-57
2021/04/08 02:30:13;;;;;;;25.77;12.00;;;;;;;;;;4999189;28;20086;-56
2021/04/08 02:32:40;;;;;;;20.65;10.90;;;;;;;;;;4983223;28;20337;-59
2021/04/08 02:35:14;;;;;;;27.42;9.52;;;;;;;;;;4984132;28;20026;-59
2021/04/08 02:37:40;;;;;;;22.38;12.55;;;;;;;;;;4983903;28;20046;-58
2021/04/08 02:40:09;;;;;;;30.30;10.93;;;;;;;;;;4999085;28;20019;-59
2021/04/08 02:42:35;;;;;;;;;;;;;;;;;;4984345;28;20018;-60
2021/04/08 02:45:01;;;;;;;21.90;11.85;;;;;;;;;;4983891;28;19977;-57
2021/04/08 02:47:27;;;;;;;34.50;10.75;;;;;;;;;;4983789;28;20321;-58
2021/04/08 02:49:54;;;;;;;23.67;11.52;;;;;;;;;;4998779;28;20030;-58
2021/04/08 02:52:21;;;;;;;21.90;10.13;;;;;;;;;;4984145;28;20023;-60
2021/04/08 02:54:55;;;;;;;23.83;12.43;;;;;;;;;;4983803;28;20094;-58
2021/04/08 02:57:44;;;;;;;23.50;10.00;;;;;;;;;;4983917;28;20018;-59
2021/04/08 03:00:11;;;;;;;21.88;11.25;;;;;;;;;;4983347;28;20245;-59
2021/04/08 03:02:39;;;;;;;22.60;9.95;;;;;;;;;;4983705;28;20077;-59
2021/04/08 03:05:08;;;;;;;21.23;10.43;;;;;;;;;;4983627;28;20031;-58
2021/04/08 03:07:37;;;;;;;22.10;12.43;;;;;;;;;;4983672;28;20081;-61
2021/04/08 03:10:08;;;;;;;20.52;10.55;;;;;;;;;;4983771;28;20368;-57
2021/04/08 03:12:35;;;;;;;23.00;10.38;;;;;;;;;;4983686;28;20022;-59
2021/04/08 03:15:02;;;;;;;19.73;10.48;;;;;;;;;;4998743;28;20023;-59
2021/04/08 03:17:31;;;;;;;24.92;12.73;;;;;;;;;;4984030;28;20029;-57
2021/04/08 03:19:59;;;;;;;21.25;9.13;;;;;;;;;;4983921;28;20093;-55
2021/04/08 03:22:25;;;;;;;22.55;8.88;;;;;;;;;;4983914;28;20324;-57
2021/04/08 03:24:53;;;;;;;26.00;9.98;;;;;;;;;;4983499;28;20260;-61
2021/04/08 03:27:20;;;;;;;21.50;9.10;;;;;;;;;;4983523;28;20065;-56
2021/04/08 03:29:47;;;;;;;22.70;11.63;;;;;;;;;;4983531;28;20309;-58
2021/04/08 03:32:17;;;;;;;19.83;9.63;;;;;;;;;;4998494;28;20015;-59
2021/04/08 03:34:44;;;;;;;24.13;11.30;;;;;;;;;;4983461;28;20018;-59
2021/04/08 03:37:10;;;;;;;23.73;9.13;;;;;;;;;;4983283;28;20030;-59
2021/04/08 03:39:36;;;;;;;29.95;14.00;;;;;;;;;;4983269;28;20321;-59
2021/04/08 03:42:03;;;;;;;23.52;9.27;;;;;;;;;;4998480;28;20019;-64
2021/04/08 03:44:30;;;;;;;23.27;10.45;;;;;;;;;;4985606;28;20293;-59
2021/04/08 03:46:58;;;;;;;20.70;10.40;;;;;;;;;;4987145;28;20035;-57
2021/04/08 03:49:25;;;;;;;22.35;10.18;;;;;;;;;;4987043;28;20323;-57
2021/04/08 03:51:52;;;;;;;24.05;13.32;;;;;;;;;;4986828;28;20030;-61
2021/04/08 03:54:18;;;;;;;21.50;10.18;;;;;;;;;;4987108;28;20099;-54
2021/04/08 03:56:46;;;;;;;28.75;10.73;;;;;;;;;;4986925;28;20035;-56
2021/04/08 03:59:14;;;;;;;20.85;9.73;;;;;;;;;;4987091;28;20027;-58
2021/04/08 04:01:40;;;;;;;21.98;14.15;;;;;;;;;;4986986;28;20023;-58
2021/04/08 04:04:09;;;;;;;25.10;12.40;;;;;;;;;;4986587;28;20027;-58
2021/04/08 04:06:37;;;;;;;24.65;11.20;;;;;;;;;;5001575;28;20046;-59
2021/04/08 04:09:04;;;;;;;22.40;10.38;;;;;;;;;;4986879;28;20217;-57
2021/04/08 04:11:32;;;;;;;21.40;10.52;;;;;;;;;;4986644;28;20082;-61
2021/04/08 04:13:59;;;;;;;21.80;14.15;;;;;;;;;;4986560;28;20049;-57
2021/04/08 04:16:27;;;;;;;22.95;9.15;;;;;;;;;;5001527;28;20347;-59
2021/04/08 04:18:53;;;;;;;25.25;11.40;;;;;;;;;;4986573;28;20376;-58
2021/04/08 04:21:19;;;;;;;23.23;11.40;;;;;;;;;;4986442;28;20042;-59
2021/04/08 04:23:46;;;;;;;22.60;9.50;;;;;;;;;;4986703;28;20026;-56
2021/04/08 04:26:13;;;;;;;25.17;11.60;;;;;;;;;;5001419;28;20023;-55
2021/04/08 04:28:39;;;;;;;23.63;11.18;;;;;;;;;;5001356;28;20240;-59
2021/04/08 04:31:05;;;;;;;23.20;11.93;;;;;;;;;;5000996;28;20066;-55
2021/04/08 04:33:31;;;;;;;24.33;10.02;;;;;;;;;;4986081;28;20022;-54
2021/04/08 04:35:58;;;;;;;29.60;10.35;;;;;;;;;;4985859;28;20340;-58
2021/04/08 04:38:24;;;;;;;24.25;11.82;;;;;;;;;;4986510;28;20030;-54
2021/04/08 04:40:51;;;;;;;26.20;11.50;;;;;;;;;;4985995;28;20190;-54
2021/04/08 04:43:17;;;;;;;26.45;11.90;;;;;;;;;;4986161;28;20217;-60
2021/04/08 04:45:43;;;;;;;28.35;10.65;;;;;;;;;;5000947;28;20038;-58
2021/04/08 04:48:10;;;;;;;23.45;13.20;;;;;;;;;;4986193;28;20078;-53
2021/04/08 04:50:37;;;;;;;25.13;9.95;;;;;;;;;;4986183;28;20023;-58
2021/04/08 04:53:04;;;;;;;22.80;10.07;;;;;;;;;;4985924;28;20038;-60
2021/04/08 04:55:30;;;;;;;26.98;10.88;;;;;;;;;;4984878;28;20149;-58
2021/04/08 04:57:56;;;;;;;28.25;11.70;;;;;;;;;;4985790;28;20034;-58
2021/04/08 05:00:22;;;;;;;29.10;13.20;;;;;;;;;;5000695;28;20027;-58
2021/04/08 05:02:50;;;;;;;22.75;12.00;;;;;;;;;;4985824;28;20030;-56
2021/04/08 05:05:17;;;;;;;24.20;10.65;;;;;;;;;;4985371;28;20023;-55
2021/04/08 05:07:44;;;;;;;26.20;11.90;;;;;;;;;;4985688;28;20023;-58
2021/04/08 05:10:11;;;;;;;25.42;9.98;;;;;;;;;;4985601;28;20050;-60
2021/04/08 05:12:38;;;;;;;27.45;13.38;;;;;;;;;;4985376;28;20026;-58
2021/04/08 05:15:05;;;;;;;27.95;11.13;;;;;;;;;;5000337;28;20110;-62
2021/04/08 05:17:31;;;;;;;31.40;14.52;;;;;;;;;;4985525;28;20050;-57
2021/04/08 05:19:58;;;;;;;26.33;12.75;;;;;;;;;;4985023;28;20027;-58
2021/04/08 05:22:24;;;;;;;25.10;13.40;;;;;;;;;;4985128;28;20108;-59
2021/04/08 05:24:51;;;;;;;29.48;13.55;;;;;;;;;;5000111;28;20073;-65
2021/04/08 05:27:18;;;;;;;27.33;12.90;;;;;;;;;;5000142;28;20094;-58
2021/04/08 05:29:44;;;;;;;25.88;12.75;;;;;;;;;;4984996;28;20065;-59
2021/04/08 05:32:10;;;;;;;23.67;10.60;;;;;;;;;;4985011;28;20022;-60
2021/04/08 05:34:37;;;;;;;26.48;12.60;;;;;;;;;;4984844;28;20026;-59
2021/04/08 05:37:03;;;;;;;23.20;10.77;;;;;;;;;;4999733;28;20038;-59
2021/04/08 05:39:29;;;;;;;24.48;11.35;;;;;;;;;;4984595;28;20081;-60
2021/04/08 05:41:55;;;;;;;25.23;12.00;;;;;;;;;;4984659;28;20034;-60
2021/04/08 05:44:22;;;;;;;23.90;11.65;;;;;;;;;;4984573;28;20019;-59
2021/04/08 05:46:48;;;;;;;23.75;11.95;;;;;;;;;;4984650;28;20038;-61
2021/04/08 05:49:14;;;;;;;26.40;10.63;;;;;;;;;;4984767;28;20023;-56
2021/04/08 05:51:40;;;;;;;23.92;10.95;;;;;;;;;;4984743;28;20023;-58
2021/04/08 05:54:11;;;;;;;23.23;11.13;;;;;;;;;;4984620;28;20047;-58
2021/04/08 05:56:37;;;;;;;22.67;11.00;;;;;;;;;;4985507;28;20321;-61
2021/04/08 05:59:03;;;;;;;26.02;11.57;;;;;;;;;;4985491;28;20030;-59
2021/04/08 06:01:30;;;;;;;22.80;11.75;;;;;;;;;;4985054;28;20316;-58
2021/04/08 06:03:56;;;;;;;25.30;11.95;;;;;;;;;;4984348;28;20094;-59
2021/04/08 06:06:23;;;;;;;28.50;14.50;;;;;;;;;;4984130;28;20023;-57
2021/04/08 06:08:50;;;;;;;23.50;10.98;;;;;;;;;;4984170;28;20019;-56
2021/04/08 06:11:17;;;;;;;23.50;12.02;;;;;;;;;;4984060;28;20019;-58
2021/04/08 06:13:43;;;;;;;23.73;11.10;;;;;;;;;;4984110;28;20027;-62
2021/04/08 06:16:09;;;;;;;20.80;9.93;;;;;;;;;;4984239;28;20042;-57
2021/04/08 06:18:36;;;;;;;25.67;10.73;;;;;;;;;;4984207;28;20099;-59
2021/04/08 06:21:03;;;;;;;21.45;9.70;;;;;;;;;;4984114;28;20026;-60
2021/04/08 06:23:30;;;;;;;25.40;10.73;;;;;;;;;;4984401;28;20031;-60
2021/04/08 06:25:57;;;;;;;27.30;9.90;;;;;;;;;;4984013;28;20027;-56
2021/04/08 06:28:24;;;;;;;20.95;9.65;;;;;;;;;;4983962;28;20023;-58
2021/04/08 06:30:50;;;;;;;23.15;10.68;;;;;;;;;;4982195;28;20046;-57
2021/04/08 06:33:16;;;;;;;21.45;10.63;;;;;;;;;;4979718;28;20021;-59
2021/04/08 06:35:42;;;;;;;20.67;9.35;;;;;;;;;;4983735;28;20316;-57
2021/04/08 06:38:08;;;;;;;21.35;10.55;;;;;;;;;;4997585;23;20316;-62
2021/04/08 06:40:35;;;;;;;26.17;12.00;;;;;;;;;;4973261;28;20018;-62
2021/04/08 06:43:02;;;;;;;23.00;11.10;;;;;;;;;;4997136;28;20207;-62
2021/04/08 06:45:30;;;;;;;19.80;9.65;;;;;;;;;;4982138;28;20069;-63
2021/04/08 06:48:25;;;;;;;20.55;9.60;;;;;;;;;;4997112;28;20014;-61
2021/04/08 06:50:53;;;;;;;19.85;9.13;;;;;;;;;;4946929;28;20024;-63
2021/04/08 06:53:19;;;;;;;19.02;8.85;;;;;;;;;;4968380;28;20022;-63
2021/04/08 06:55:47;;;;;;;22.67;9.63;;;;;;;;;;4962252;28;20086;-61
2021/04/08 06:58:14;;;;;;;22.63;9.85;;;;;;;;;;4976155;28;20219;-61
2021/04/08 07:00:40;;;;;;;20.35;9.18;;;;;;;;;;4977552;28;20309;-62
2021/04/08 07:03:08;;;;;;;19.65;9.68;;;;;;;;;;4963347;29;20023;-63
2021/04/08 07:05:34;;;;;;;19.50;9.57;;;;;;;;;;4970457;28;20030;-62
2021/04/08 07:08:00;;;;;;;22.02;8.48;;;;;;;;;;4982072;28;20270;-61
2021/04/08 07:10:27;;;;;;;19.13;7.60;;;;;;;;;;4964684;28;20022;-62
2021/04/08 07:12:53;;;;;;;19.63;9.45;;;;;;;;;;4964748;28;20046;-63
2021/04/08 07:15:20;;;;;;;18.27;9.30;;;;;;;;;;4982014;28;20019;-63
2021/04/08 07:17:46;;;;;;;19.20;9.18;;;;;;;;;;4964543;28;20022;-61
2021/04/08 07:20:13;;;;;;;18.05;7.03;;;;;;;;;;4985699;28;20212;-62
2021/04/08 07:22:39;;;;;;;19.88;8.40;;;;;;;;;;4985796;28;20011;-63
2021/04/08 07:25:19;;;;;;;18.48;9.30;;;;;;;;;;4985707;28;20260;-64
2021/04/08 07:27:45;;;;;;;16.90;8.30;;;;;;;;;;4985610;28;20049;-62
2021/04/08 07:30:12;;;;;;;20.98;8.18;;;;;;;;;;4985661;28;20217;-65
2021/04/08 07:32:39;;;;;;;19.02;8.13;;;;;;;;;;4985486;28;20014;-61
2021/04/08 07:35:11;;;;;;;21.80;8.30;;;;;;;;;;4985802;28;20048;-64
2021/04/08 07:37:38;;;;;;;16.02;8.00;;;;;;;;;;4985318;28;20601;-63
2021/04/08 07:40:06;;;;;;;18.20;7.35;;;;;;;;;;5000401;28;20085;-63
2021/04/08 07:42:33;;;;;;;20.38;7.93;;;;;;;;;;4985135;28;20094;-64
2021/04/08 07:45:01;;;;;;;16.42;6.70;;;;;;;;;;4985007;28;20446;-63
2021/04/08 07:47:27;;;;;;;;;;;;;;;;;;4985724;28;20082;-63
2021/04/08 07:49:58;;;;;;;16.45;7.60;;;;;;;;;;4985308;28;19902;-62
2021/04/08 07:52:25;;;;;;;17.25;8.55;;;;;;;;;;4985044;28;20190;-64
2021/04/08 07:55:12;;;;;;;17.67;7.43;;;;;;;;;;4985046;28;20057;-63
2021/04/08 07:57:51;;;;;;;18.75;8.95;;;;;;;;;;4984526;28;20026;-64
2021/04/08 08:00:19;;;;;;;17.15;8.23;;;;;;;;;;4985127;28;20037;-64
2021/04/08 08:02:45;;;;;;;17.95;8.15;;;;;;;;;;4984921;28;20041;-63
2021/04/08 08:05:26;;;;;;;17.73;7.93;;;;;;;;;;4984794;28;20094;-63
2021/04/08 08:07:53;;;;;;;16.58;7.80;;;;;;;;;;4984794;28;20014;-63
2021/04/08 08:10:21;;;;;;;19.15;7.90;;;;;;;;;;4984938;28;20061;-63
2021/04/08 08:12:47;;;;;;;19.75;8.75;;;;;;;;;;4984823;28;20061;-65
2021/04/08 08:15:15;;;;;;;18.50;8.80;;;;;;;;;;4984606;28;20023;-64
2021/04/08 08:17:41;;;;;;;20.38;8.13;;;;;;;;;;4984552;28;20026;-64
2021/04/08 08:20:08;;;;;;;27.25;9.13;;;;;;;;;;4967440;28;20030;-64
2021/04/08 08:22:35;;;;;;;20.23;7.80;;;;;;;;;;4984508;28;20031;-64
2021/04/08 08:25:01;;;;;;;20.77;8.18;;;;;;;;;;4984239;28;20018;-63
2021/04/08 08:27:56;;;;;;;19.50;7.22;;;;;;;;;;4984548;28;20317;-64
2021/04/08 08:30:25;;;;;;;15.23;7.13;;;;;;;;;;4974441;28;20328;-63
2021/04/08 08:33:15;;;;;;;15.55;6.88;;;;;;;;;;4984114;28;20017;-63
2021/04/08 08:35:41;;;;;;;17.83;8.00;;;;;;;;;;4947793;29;20019;-64
2021/04/08 08:38:11;;;;;;;16.13;8.00;;;;;;;;;;4964886;29;20038;-63
2021/04/08 08:40:37;;;;;;;16.80;7.50;;;;;;;;;;4964690;28;20026;-63
2021/04/08 08:43:05;;;;;;;18.27;9.23;;;;;;;;;;4964646;28;20110;-63
2021/04/08 08:45:31;;;;;;;19.27;8.57;;;;;;;;;;4964765;28;20049;-63
2021/04/08 08:47:59;;;;;;;20.92;8.25;;;;;;;;;;4964698;28;20023;-63
2021/04/08 08:50:25;;;;;;;18.63;7.57;;;;;;;;;;4964875;28;20305;-61
2021/04/08 08:52:51;;;;;;;17.38;9.95;;;;;;;;;;4965106;28;20037;-60
2021/04/08 08:55:18;;;;;;;18.30;7.95;;;;;;;;;;4964474;29;20376;-62
2021/04/08 08:57:47;;;;;;;18.60;8.05;;;;;;;;;;4963904;29;20314;-61
2021/04/08 09:00:15;;;;;;;19.83;7.80;;;;;;;;;;4964486;28;20019;-63
2021/04/08 09:02:42;;;;;;;22.02;8.80;;;;;;;;;;4964654;28;20051;-62
2021/04/08 09:05:12;;;;;;;18.40;9.07;;;;;;;;;;4964120;29;20015;-62
2021/04/08 09:07:41;;;;;;;17.55;8.35;;;;;;;;;;4964053;29;20023;-61
2021/04/08 09:10:08;;;;;;;17.52;7.22;;;;;;;;;;4979115;28;20015;-62
2021/04/08 09:12:35;;;;;;;21.50;9.38;;;;;;;;;;4964214;28;20058;-62
2021/04/08 09:15:01;;;;;;;17.48;8.93;;;;;;;;;;4964015;28;20019;-62
2021/04/08 09:17:37;;;;;;;20.02;9.10;;;;;;;;;;4964041;29;20026;-61
2021/04/08 09:20:07;;;;;;;18.30;7.75;;;;;;;;;;4964096;28;20019;-61
2021/04/08 09:22:33;;;;;;;16.75;9.07;;;;;;;;;;4963802;28;20027;-62
2021/04/08 09:25:00;;;;;;;21.90;8.40;;;;;;;;;;4963684;28;20358;-61
2021/04/08 09:27:27;;;;;;;21.95;9.30;;;;;;;;;;4963668;29;20027;-61
2021/04/08 09:29:58;;;;;;;17.73;9.30;;;;;;;;;;4963901;29;20262;-61
2021/04/08 09:32:34;;;;;;;17.08;8.38;;;;;;;;;;4963758;28;20039;-64
2021/04/08 09:35:06;;;;;;;17.17;8.95;;;;;;;;;;4978092;28;20340;-64
2021/04/08 09:37:45;;;;;;;16.13;8.02;;;;;;;;;;4983037;28;20026;-63
2021/04/08 09:43:01;;;;;;;17.27;7.22;;;;;;;;;;4982418;28;20018;-62
2021/04/08 09:45:27;;;;;;;16.13;8.00;;;;;;;;;;4997928;28;20316;-63
2021/04/08 09:48:09;;;;;;;20.35;8.75;;;;;;;;;;4982730;28;20019;-64
2021/04/08 09:50:44;;;;;;;19.05;7.85;;;;;;;;;;4982937;28;20269;-62
2021/04/08 09:53:11;;;;;;;16.40;9.25;;;;;;;;;;4982816;28;20106;-61
2021/04/08 09:55:37;;;;;;;17.42;7.68;;;;;;;;;;4982641;28;20054;-63
2021/04/08 09:58:04;;;;;;;15.43;7.38;;;;;;;;;;4997307;28;20291;-63
2021/04/08 10:00:30;;;;;;;18.20;8.45;;;;;;;;;;4982673;28;20094;-62
2021/04/08 10:03:01;;;;;;;19.02;6.53;;;;;;;;;;4982286;28;20069;-62
2021/04/08 10:05:34;;;;;;;18.60;8.10;;;;;;;;;;4997130;28;20027;-63
2021/04/08 10:08:01;;;;;;;16.30;7.03;;;;;;;;;;4982467;28;20015;-62
2021/04/08 10:10:36;;;;;;;14.75;7.63;;;;;;;;;;4982502;28;20027;-60
2021/04/08 10:13:03;;;;;;;15.15;6.70;;;;;;;;;;4982208;28;20014;-63
2021/04/08 10:15:35;;;;;;;17.52;9.35;;;;;;;;;;4997114;28;20327;-63
2021/04/08 10:18:02;;;;;;;24.25;8.00;;;;;;;;;;4982079;28;20026;-62
2021/04/08 10:20:38;;;;;;;16.35;6.90;;;;;;;;;;4982377;28;20233;-62
2021/04/08 10:23:04;;;;;;;17.08;8.02;;;;;;;;;;4982032;28;20019;-61
2021/04/08 10:25:31;;;;;;;15.98;7.65;;;;;;;;;;4996870;28;20030;-62
2021/04/08 10:27:57;;;;;;;15.32;8.80;;;;;;;;;;4982085;28;20137;-60
2021/04/08 10:30:23;;;;;;;19.10;8.13;;;;;;;;;;4982148;28;20096;-61
2021/04/08 10:32:50;;;;;;;15.95;8.63;;;;;;;;;;4981945;28;20319;-62
2021/04/08 10:35:27;;;;;;;18.05;9.05;;;;;;;;;;4981815;28;20169;-62
2021/04/08 10:38:04;;;;;;;15.38;8.20;;;;;;;;;;4996790;28;20094;-62
2021/04/08 10:40:31;;;;;;;15.93;7.50;;;;;;;;;;4982102;28;20379;-63
2021/04/08 10:43:14;;;;;;;14.45;6.80;;;;;;;;;;4981933;28;20303;-62
2021/04/08 10:45:51;;;;;;;16.92;7.88;;;;;;;;;;4996756;28;20023;-61
2021/04/08 10:48:17;;;;;;;16.77;6.30;;;;;;;;;;4996814;28;20022;-63
2021/04/08 10:50:43;;;;;;;15.55;7.18;;;;;;;;;;4996860;28;20021;-62
2021/04/08 10:53:11;;;;;;;19.52;7.35;;;;;;;;;;4981144;28;20035;-60
2021/04/08 10:55:37;;;;;;;15.10;7.22;;;;;;;;;;4981980;28;20089;-60
2021/04/08 10:58:04;;;;;;;16.90;8.18;;;;;;;;;;4981711;28;20029;-61
2021/04/08 11:00:30;;;;;;;15.25;7.15;;;;;;;;;;4981832;28;20378;-60
2021/04/08 11:03:00;;;;;;;15.65;8.73;;;;;;;;;;4981991;28;20018;-61
2021/04/08 11:05:27;;;;;;;15.38;7.80;;;;;;;;;;4981251;28;20022;-62
2021/04/08 11:07:56;;;;;;;17.48;8.60;;;;;;;;;;4981468;28;20268;-63
2021/04/08 11:10:26;;;;;;;16.00;8.90;;;;;;;;;;4981855;28;20131;-61
2021/04/08 11:12:53;;;;;;;15.82;9.30;;;;;;;;;;4982008;28;20015;-62
2021/04/08 11:15:24;;;;;;;17.77;10.60;;;;;;;;;;4981676;28;20086;-61
2021/04/08 11:17:54;;;;;;;16.48;10.40;;;;;;;;;;4981837;28;20029;-63
2021/04/08 11:20:46;;;;;;;15.20;9.25;;;;;;;;;;4981781;28;20042;-62
2021/04/08 11:23:13;;;;;;;15.07;9.55;;;;;;;;;;4979738;28;20031;-64
2021/04/08 11:25:40;;;;;;;15.68;8.57;;;;;;;;;;4981564;28;20023;-63
2021/04/08 11:28:07;;;;;;;15.45;9.98;;;;;;;;;;4982327;28;20019;-62
2021/04/08 11:30:37;;;;;;;16.45;9.98;;;;;;;;;;4981832;28;20217;-63
2021/04/08 11:33:04;;;;;;;15.50;10.18;;;;;;;;;;4981537;28;20019;-62
2021/04/08 11:35:30;;;;;;;16.77;11.30;;;;;;;;;;4981413;28;20041;-63
2021/04/08 11:38:11;;;;;;;16.95;10.80;;;;;;;;;;4981371;28;20231;-62
2021/04/08 11:40:38;;;;;;;17.67;11.15;;;;;;;;;;4981830;28;20050;-62
2021/04/08 11:43:18;;;;;;;18.27;11.15;;;;;;;;;;4996679;28;20077;-61
2021/04/08 11:45:45;;;;;;;18.77;12.90;;;;;;;;;;4981302;28;20112;-61
2021/04/08 11:48:13;;;;;;;16.83;11.52;;;;;;;;;;4981735;28;20025;-63
2021/04/08 11:50:42;;;;;;;18.67;13.40;;;;;;;;;;4996704;28;20041;-62
2021/04/08 11:53:28;;;;;;;16.45;11.90;;;;;;;;;;4981586;28;20063;-63
2021/04/08 11:55:54;;;;;;;19.38;12.90;;;;;;;;;;4971118;28;20278;-61
2021/04/08 11:58:32;;;;;;;18.67;13.38;;;;;;;;;;4981061;28;20026;-60
2021/04/08 12:01:11;;;;;;;18.08;13.13;;;;;;;;;;4981490;28;20325;-62
2021/04/08 12:03:39;;;;;;;17.98;12.50;;;;;;;;;;4981687;28;20023;-62
2021/04/08 12:06:09;;;;;;;19.35;14.38;;;;;;;;;;4999632;28;20081;-62
2021/04/08 12:08:43;;;;;;;17.52;12.30;;;;;;;;;;4984911;28;20018;-61
2021/04/08 12:11:10;;;;;;;18.20;13.35;;;;;;;;;;4999822;28;20022;-62
2021/04/08 12:13:36;;;;;;;18.20;12.43;;;;;;;;;;4999639;28;20201;-61
2021/04/08 12:16:05;;;;;;;19.10;14.35;;;;;;;;;;4984562;28;20126;-63
2021/04/08 12:18:31;;;;;;;18.55;13.57;;;;;;;;;;4999814;28;20022;-62
2021/04/08 12:20:58;;;;;;;16.80;12.35;;;;;;;;;;4984846;28;20030;-61
2021/04/08 12:23:26;;;;;;;17.73;12.27;;;;;;;;;;4984801;28;20094;-63
2021/04/08 12:25:54;;;;;;;19.48;12.18;;;;;;;;;;4984646;28;20053;-62
2021/04/08 12:28:24;;;;;;;17.65;12.88;;;;;;;;;;4984717;28;20086;-60
2021/04/08 12:30:57;;;;;;;19.88;14.02;;;;;;;;;;4984611;28;20026;-62
2021/04/08 12:33:26;;;;;;;21.48;13.77;;;;;;;;;;4984279;28;20290;-61
2021/04/08 12:35:53;;;;;;;17.58;12.38;;;;;;;;;;4984006;28;20031;-62
2021/04/08 12:38:19;;;;;;;18.63;13.15;;;;;;;;;;5022274;23;20043;-57
2021/04/08 12:40:45;;;;;;;17.42;12.85;;;;;;;;;;4985694;28;20035;-56
2021/04/08 12:43:12;;;;;;;18.65;13.07;;;;;;;;;;4985543;28;20014;-56
2021/04/08 12:45:38;;;;;;;21.42;13.88;;;;;;;;;;4985259;28;20097;-55
2021/04/08 12:48:05;;;;;;;21.02;14.57;;;;;;;;;;4985310;28;20123;-55
2021/04/08 12:50:32;;;;;;;19.52;13.68;;;;;;;;;;4985189;28;20093;-57
2021/04/08 12:52:58;;;;;;;17.50;12.85;;;;;;;;;;4985764;28;20018;-58
2021/04/08 12:55:27;;;;;;;18.70;12.20;;;;;;;;;;4985618;28;20018;-54
2021/04/08 12:57:54;;;;;;;19.08;12.73;;;;;;;;;;4984850;28;20169;-56
2021/04/08 13:00:20;;;;;;;17.45;12.93;;;;;;;;;;4985408;28;20023;-56
2021/04/08 13:02:46;;;;;;;17.73;13.05;;;;;;;;;;4985064;28;20359;-55
2021/04/08 13:05:13;;;;;;;17.58;12.27;;;;;;;;;;4984764;28;20113;-57
2021/04/08 13:07:39;;;;;;;17.40;13.02;;;;;;;;;;4985295;28;20018;-58
2021/04/08 13:10:06;;;;;;;16.92;12.55;;;;;;;;;;4985328;28;20102;-50
2021/04/08 13:12:32;;;;;;;20.05;14.25;;;;;;;;;;4985145;28;20078;-54
2021/04/08 13:14:58;;;;;;;20.25;14.00;;;;;;;;;;4984842;28;20316;-55
2021/04/08 13:17:24;;;;;;;17.75;14.23;;;;;;;;;;4984186;28;20161;-52
2021/04/08 13:19:50;;;;;;;18.63;14.52;;;;;;;;;;4984697;28;20023;-56
2021/04/08 13:22:17;;;;;;;18.45;13.98;;;;;;;;;;4985134;28;20022;-55
2021/04/08 13:24:43;;;;;;;18.85;10.90;;;;;;;;;;4984751;28;20014;-52
2021/04/08 13:27:09;;;;;;;17.27;13.15;;;;;;;;;;4999733;28;20025;-50
2021/04/08 13:29:35;;;;;;;19.90;15.25;;;;;;;;;;4984725;28;20090;-53
2021/04/08 13:32:01;;;;;;;21.15;14.18;;;;;;;;;;5000042;28;20022;-57
2021/04/08 13:34:28;;;;;;;23.50;16.23;;;;;;;;;;4984901;28;20011;-53
2021/04/08 13:36:54;;;;;;;17.55;13.55;;;;;;;;;;4984972;28;20093;-54
2021/04/08 13:39:20;;;;;;;18.17;13.38;;;;;;;;;;4984580;28;20034;-56
2021/04/08 13:41:46;;;;;;;17.58;13.70;;;;;;;;;;4984527;28;20229;-54
2021/04/08 13:44:13;;;;;;;18.20;14.10;;;;;;;;;;4639703;28;10000010;-56
2021/04/08 13:46:40;;;;;;;20.02;14.95;;;;;;;;;;4981590;28;20274;-57
2021/04/08 13:49:06;;;;;;;18.55;12.07;;;;;;;;;;4980456;28;20025;-55
2021/04/08 13:51:33;;;;;;;18.80;14.98;;;;;;;;;;5013279;28;20397;-57
2021/04/08 13:53:59;;;;;;;18.33;15.10;;;;;;;;;;4981947;28;20015;-57
2021/04/08 13:56:27;;;;;;;21.25;15.05;;;;;;;;;;4982146;28;20206;-57
2021/04/08 13:58:54;;;;;;;18.40;15.45;;;;;;;;;;4996836;28;20230;-53
2021/04/08 14:01:20;;;;;;;19.20;14.32;;;;;;;;;;4981699;28;20026;-53
2021/04/08 14:03:46;;;;;;;19.38;14.73;;;;;;;;;;4981991;28;20022;-54
2021/04/08 14:06:13;;;;;;;20.35;15.95;;;;;;;;;;4982080;28;20034;-56
2021/04/08 14:08:39;;;;;;;18.52;15.25;;;;;;;;;;4982594;28;20050;-55
2021/04/08 14:11:05;;;;;;;19.08;14.48;;;;;;;;;;4982002;28;20027;-56
2021/04/08 14:13:31;;;;;;;19.23;14.55;;;;;;;;;;4981838;28;20027;-56
2021/04/08 14:15:57;;;;;;;18.83;14.98;;;;;;;;;;4981607;28;20027;-54
2021/04/08 14:18:24;;;;;;;19.23;15.45;;;;;;;;;;4981399;28;20320;-57
2021/04/08 14:20:50;;;;;;;19.10;13.43;;;;;;;;;;4981683;28;20023;-57
2021/04/08 14:23:16;;;;;;;18.70;14.43;;;;;;;;;;4981893;28;20400;-52
2021/04/08 14:25:42;;;;;;;18.98;16.67;;;;;;;;;;4981455;28;20033;-55
2021/04/08 14:28:08;;;;;;;20.38;13.52;;;;;;;;;;4981628;28;20014;-57
2021/04/08 14:30:34;;;;;;;20.23;16.50;;;;;;;;;;4981525;28;20374;-55
2021/04/08 14:33:01;;;;;;;20.90;15.18;;;;;;;;;;5013064;28;20022;-57
2021/04/08 14:35:28;;;;;;;19.15;15.40;;;;;;;;;;4981055;28;20093;-51